sensor_id;sensor_type;location;lat;lon;timestamp;P1;durP1;ratioP1;P2;durP2;ratioP2
20884;SDS011;10602;48.000;9.654;2022-08-25T00:01:29;5.37;;;4.60;;
20884;SDS011;10602;48.000;9.654;2022-08-25T00:03:59;3.43;;;3.10;;
20884;SDS011;10602;48.000;9.654;2022-08-25T00:06:27;4.50;;;4.10;;
20884;SDS011;10602;48.000;9.654;2022-08-25T00:08:55;5.23;;;4.27;;
20884;SDS011;10602;48.000;9.654;2022-08-25T00:11:25;4.10;;;3.70;;
20884;SDS011;10602;48.000;9.654;2022-08-25T00:13:56;3.70;;;3.40;;
20884;SDS011;10602;48.000;9.654;2022-08-25T00:16:25;3.63;;;3.33;;
20884;SDS011;10602;48.000;9.654;2022-08-25T00:18:57;4.30;;;3.90;;
20884;SDS011;10602;48.000;9.654;2022-08-25T00:21:26;4.33;;;3.93;;
20884;SDS011;10602;48.000;9.654;2022-08-25T00:23:56;5.37;;;3.60;;
20884;SDS011;10602;48.000;9.654;2022-08-25T00:26:24;4.47;;;3.50;;
20884;SDS011;10602;48.000;9.654;2022-08-25T00:28:52;4.03;;;3.40;;
20884;SDS011;10602;48.000;9.654;2022-08-25T00:31:20;4.03;;;3.60;;
20884;SDS011;10602;48.000;9.654;2022-08-25T00:33:49;4.37;;;3.70;;
20884;SDS011;10602;48.000;9.654;2022-08-25T00:36:17;4.53;;;3.83;;
20884;SDS011;10602;48.000;9.654;2022-08-25T00:38:46;4.00;;;3.60;;
20884;SDS011;10602;48.000;9.654;2022-08-25T00:41:16;4.10;;;3.70;;
20884;SDS011;10602;48.000;9.654;2022-08-25T00:43:47;4.17;;;3.77;;
20884;SDS011;10602;48.000;9.654;2022-08-25T00:46:18;4.33;;;3.57;;
20884;SDS011;10602;48.000;9.654;2022-08-25T00:48:48;4.20;;;3.80;;
20884;SDS011;10602;48.000;9.654;2022-08-25T00:51:24;4.03;;;3.63;;
20884;SDS011;10602;48.000;9.654;2022-08-25T00:53:48;4.37;;;3.97;;
20884;SDS011;10602;48.000;9.654;2022-08-25T00:56:16;4.33;;;3.93;;
20884;SDS011;10602;48.000;9.654;2022-08-25T00:58:44;4.03;;;3.60;;
20884;SDS011;10602;48.000;9.654;2022-08-25T01:01:11;4.00;;;3.57;;
20884;SDS011;10602;48.000;9.654;2022-08-25T01:03:39;4.13;;;3.73;;
20884;SDS011;10602;48.000;9.654;2022-08-25T01:06:06;5.50;;;4.27;;
20884;SDS011;10602;48.000;9.654;2022-08-25T01:08:36;4.93;;;3.70;;
20884;SDS011;10602;48.000;9.654;2022-08-25T01:11:05;4.27;;;3.87;;
20884;SDS011;10602;48.000;9.654;2022-08-25T01:13:39;4.30;;;3.90;;
20884;SDS011;10602;48.000;9.654;2022-08-25T01:16:05;4.70;;;4.20;;
20884;SDS011;10602;48.000;9.654;2022-08-25T01:21:12;4.47;;;4.07;;
20884;SDS011;10602;48.000;9.654;2022-08-25T01:23:41;4.23;;;3.83;;
20884;SDS011;10602;48.000;9.654;2022-08-25T01:26:11;4.57;;;4.13;;
20884;SDS011;10602;48.000;9.654;2022-08-25T01:28:43;5.13;;;4.03;;
20884;SDS011;10602;48.000;9.654;2022-08-25T01:31:30;4.97;;;4.00;;
20884;SDS011;10602;48.000;9.654;2022-08-25T01:33:58;4.50;;;3.90;;
20884;SDS011;10602;48.000;9.654;2022-08-25T01:36:26;4.50;;;4.10;;
20884;SDS011;10602;48.000;9.654;2022-08-25T01:38:56;4.90;;;4.40;;
20884;SDS011;10602;48.000;9.654;2022-08-25T01:44:03;4.67;;;3.97;;
20884;SDS011;10602;48.000;9.654;2022-08-25T01:46:31;5.67;;;4.17;;
20884;SDS011;10602;48.000;9.654;2022-08-25T01:49:04;5.67;;;4.47;;
20884;SDS011;10602;48.000;9.654;2022-08-25T01:51:32;4.57;;;3.80;;
20884;SDS011;10602;48.000;9.654;2022-08-25T01:54:02;4.40;;;4.00;;
20884;SDS011;10602;48.000;9.654;2022-08-25T01:56:29;5.13;;;4.20;;
20884;SDS011;10602;48.000;9.654;2022-08-25T01:58:57;5.37;;;4.17;;
20884;SDS011;10602;48.000;9.654;2022-08-25T02:01:25;4.77;;;4.30;;
20884;SDS011;10602;48.000;9.654;2022-08-25T02:03:53;5.23;;;4.10;;
20884;SDS011;10602;48.000;9.654;2022-08-25T02:06:23;5.63;;;4.63;;
20884;SDS011;10602;48.000;9.654;2022-08-25T02:08:56;4.80;;;4.00;;
20884;SDS011;10602;48.000;9.654;2022-08-25T02:11:25;4.77;;;4.27;;
20884;SDS011;10602;48.000;9.654;2022-08-25T02:13:54;4.73;;;4.23;;
20884;SDS011;10602;48.000;9.654;2022-08-25T02:16:22;4.57;;;4.10;;
20884;SDS011;10602;48.000;9.654;2022-08-25T02:18:55;4.90;;;4.40;;
20884;SDS011;10602;48.000;9.654;2022-08-25T02:21:23;5.70;;;4.77;;
20884;SDS011;10602;48.000;9.654;2022-08-25T02:23:51;5.17;;;4.40;;
20884;SDS011;10602;48.000;9.654;2022-08-25T02:26:19;5.43;;;4.60;;
20884;SDS011;10602;48.000;9.654;2022-08-25T02:28:48;5.63;;;4.97;;
20884;SDS011;10602;48.000;9.654;2022-08-25T02:31:18;6.80;;;4.63;;
20884;SDS011;10602;48.000;9.654;2022-08-25T02:33:47;5.90;;;5.13;;
20884;SDS011;10602;48.000;9.654;2022-08-25T02:36:15;5.83;;;4.90;;
20884;SDS011;10602;48.000;9.654;2022-08-25T02:38:43;6.27;;;5.00;;
20884;SDS011;10602;48.000;9.654;2022-08-25T02:41:18;6.50;;;4.97;;
20884;SDS011;10602;48.000;9.654;2022-08-25T02:43:45;5.77;;;4.87;;
20884;SDS011;10602;48.000;9.654;2022-08-25T02:46:14;5.60;;;4.30;;
20884;SDS011;10602;48.000;9.654;2022-08-25T02:48:44;4.93;;;4.20;;
20884;SDS011;10602;48.000;9.654;2022-08-25T02:51:13;6.87;;;5.00;;
20884;SDS011;10602;48.000;9.654;2022-08-25T02:53:41;5.50;;;4.70;;
20884;SDS011;10602;48.000;9.654;2022-08-25T02:56:11;6.87;;;4.93;;
20884;SDS011;10602;48.000;9.654;2022-08-25T02:58:40;5.63;;;5.13;;
20884;SDS011;10602;48.000;9.654;2022-08-25T03:01:08;5.77;;;4.97;;
20884;SDS011;10602;48.000;9.654;2022-08-25T03:03:37;5.27;;;4.77;;
20884;SDS011;10602;48.000;9.654;2022-08-25T03:06:06;6.23;;;5.00;;
20884;SDS011;10602;48.000;9.654;2022-08-25T03:08:35;6.17;;;5.57;;
20884;SDS011;10602;48.000;9.654;2022-08-25T03:11:03;6.10;;;5.60;;
20884;SDS011;10602;48.000;9.654;2022-08-25T03:13:31;6.30;;;5.70;;
20884;SDS011;10602;48.000;9.654;2022-08-25T03:15:59;6.33;;;5.57;;
20884;SDS011;10602;48.000;9.654;2022-08-25T03:18:27;5.77;;;5.20;;
20884;SDS011;10602;48.000;9.654;2022-08-25T03:20:55;5.60;;;5.00;;
20884;SDS011;10602;48.000;9.654;2022-08-25T03:23:23;5.83;;;5.23;;
20884;SDS011;10602;48.000;9.654;2022-08-25T03:25:54;6.10;;;5.20;;
20884;SDS011;10602;48.000;9.654;2022-08-25T03:28:40;8.13;;;5.33;;
20884;SDS011;10602;48.000;9.654;2022-08-25T03:31:08;8.50;;;5.87;;
20884;SDS011;10602;48.000;9.654;2022-08-25T03:33:36;7.43;;;6.17;;
20884;SDS011;10602;48.000;9.654;2022-08-25T03:36:05;7.97;;;6.23;;
20884;SDS011;10602;48.000;9.654;2022-08-25T03:38:33;6.80;;;5.80;;
20884;SDS011;10602;48.000;9.654;2022-08-25T03:41:10;6.80;;;5.93;;
20884;SDS011;10602;48.000;9.654;2022-08-25T03:43:39;6.70;;;6.00;;
20884;SDS011;10602;48.000;9.654;2022-08-25T03:46:08;10.20;;;6.27;;
20884;SDS011;10602;48.000;9.654;2022-08-25T03:48:37;7.00;;;6.10;;
20884;SDS011;10602;48.000;9.654;2022-08-25T03:51:05;7.00;;;6.27;;
20884;SDS011;10602;48.000;9.654;2022-08-25T03:53:32;7.80;;;7.00;;
20884;SDS011;10602;48.000;9.654;2022-08-25T03:56:00;6.83;;;6.10;;
20884;SDS011;10602;48.000;9.654;2022-08-25T03:58:27;8.60;;;6.53;;
20884;SDS011;10602;48.000;9.654;2022-08-25T04:00:55;8.27;;;7.23;;
20884;SDS011;10602;48.000;9.654;2022-08-25T04:03:24;7.20;;;6.50;;
20884;SDS011;10602;48.000;9.654;2022-08-25T04:05:52;6.87;;;6.17;;
20884;SDS011;10602;48.000;9.654;2022-08-25T04:08:19;7.40;;;6.70;;
20884;SDS011;10602;48.000;9.654;2022-08-25T04:10:47;9.53;;;6.90;;
20884;SDS011;10602;48.000;9.654;2022-08-25T04:13:14;8.13;;;6.97;;
20884;SDS011;10602;48.000;9.654;2022-08-25T04:15:43;7.53;;;6.73;;
20884;SDS011;10602;48.000;9.654;2022-08-25T04:18:10;8.10;;;7.23;;
20884;SDS011;10602;48.000;9.654;2022-08-25T04:20:39;8.10;;;7.30;;
20884;SDS011;10602;48.000;9.654;2022-08-25T04:23:07;7.83;;;7.03;;
20884;SDS011;10602;48.000;9.654;2022-08-25T04:25:38;8.23;;;7.33;;
20884;SDS011;10602;48.000;9.654;2022-08-25T04:28:08;8.63;;;7.20;;
20884;SDS011;10602;48.000;9.654;2022-08-25T04:30:40;8.53;;;6.70;;
20884;SDS011;10602;48.000;9.654;2022-08-25T04:33:07;9.70;;;7.40;;
20884;SDS011;10602;48.000;9.654;2022-08-25T04:35:34;9.00;;;7.30;;
20884;SDS011;10602;48.000;9.654;2022-08-25T04:38:02;8.63;;;7.57;;
20884;SDS011;10602;48.000;9.654;2022-08-25T04:40:30;9.17;;;7.60;;
20884;SDS011;10602;48.000;9.654;2022-08-25T04:42:58;10.57;;;7.77;;
20884;SDS011;10602;48.000;9.654;2022-08-25T04:45:25;9.60;;;7.67;;
20884;SDS011;10602;48.000;9.654;2022-08-25T04:47:53;9.27;;;7.40;;
20884;SDS011;10602;48.000;9.654;2022-08-25T04:50:22;10.53;;;8.20;;
20884;SDS011;10602;48.000;9.654;2022-08-25T04:52:50;8.50;;;7.30;;
20884;SDS011;10602;48.000;9.654;2022-08-25T04:55:18;8.83;;;7.90;;
20884;SDS011;10602;48.000;9.654;2022-08-25T04:57:45;9.57;;;8.17;;
20884;SDS011;10602;48.000;9.654;2022-08-25T05:00:13;11.30;;;8.33;;
20884;SDS011;10602;48.000;9.654;2022-08-25T05:02:42;9.13;;;8.20;;
20884;SDS011;10602;48.000;9.654;2022-08-25T05:05:10;10.80;;;8.23;;
20884;SDS011;10602;48.000;9.654;2022-08-25T05:07:37;9.60;;;7.90;;
20884;SDS011;10602;48.000;9.654;2022-08-25T05:10:05;10.77;;;8.37;;
20884;SDS011;10602;48.000;9.654;2022-08-25T05:12:33;9.20;;;8.27;;
20884;SDS011;10602;48.000;9.654;2022-08-25T05:15:00;11.43;;;8.70;;
20884;SDS011;10602;48.000;9.654;2022-08-25T05:17:30;9.60;;;8.60;;
20884;SDS011;10602;48.000;9.654;2022-08-25T05:19:57;12.77;;;9.00;;
20884;SDS011;10602;48.000;9.654;2022-08-25T05:22:25;10.53;;;8.53;;
20884;SDS011;10602;48.000;9.654;2022-08-25T05:24:52;11.07;;;8.80;;
20884;SDS011;10602;48.000;9.654;2022-08-25T05:27:20;10.53;;;8.63;;
20884;SDS011;10602;48.000;9.654;2022-08-25T05:29:47;10.57;;;8.50;;
20884;SDS011;10602;48.000;9.654;2022-08-25T05:32:15;12.30;;;9.30;;
20884;SDS011;10602;48.000;9.654;2022-08-25T05:34:42;10.63;;;8.80;;
20884;SDS011;10602;48.000;9.654;2022-08-25T05:37:10;11.77;;;8.67;;
20884;SDS011;10602;48.000;9.654;2022-08-25T05:39:37;9.43;;;7.87;;
20884;SDS011;10602;48.000;9.654;2022-08-25T05:42:05;9.23;;;8.23;;
20884;SDS011;10602;48.000;9.654;2022-08-25T05:44:32;10.23;;;8.27;;
20884;SDS011;10602;48.000;9.654;2022-08-25T05:47:00;10.23;;;8.73;;
20884;SDS011;10602;48.000;9.654;2022-08-25T05:49:27;11.27;;;9.07;;
20884;SDS011;10602;48.000;9.654;2022-08-25T05:51:55;13.17;;;10.60;;
20884;SDS011;10602;48.000;9.654;2022-08-25T05:54:22;12.33;;;10.10;;
20884;SDS011;10602;48.000;9.654;2022-08-25T05:56:50;11.07;;;9.60;;
20884;SDS011;10602;48.000;9.654;2022-08-25T05:59:18;12.23;;;9.87;;
20884;SDS011;10602;48.000;9.654;2022-08-25T06:01:45;15.87;;;11.07;;
20884;SDS011;10602;48.000;9.654;2022-08-25T06:04:30;11.30;;;9.73;;
20884;SDS011;10602;48.000;9.654;2022-08-25T06:06:58;11.43;;;9.60;;
20884;SDS011;10602;48.000;9.654;2022-08-25T06:09:25;18.57;;;14.87;;
20884;SDS011;10602;48.000;9.654;2022-08-25T06:11:53;37.13;;;29.03;;
20884;SDS011;10602;48.000;9.654;2022-08-25T06:14:21;18.60;;;15.53;;
20884;SDS011;10602;48.000;9.654;2022-08-25T06:16:49;14.73;;;11.57;;
20884;SDS011;10602;48.000;9.654;2022-08-25T06:19:17;11.23;;;10.03;;
20884;SDS011;10602;48.000;9.654;2022-08-25T06:21:45;9.73;;;8.73;;
20884;SDS011;10602;48.000;9.654;2022-08-25T06:24:13;27.10;;;21.70;;
20884;SDS011;10602;48.000;9.654;2022-08-25T06:26:42;19.50;;;15.17;;
20884;SDS011;10602;48.000;9.654;2022-08-25T06:29:09;12.07;;;10.17;;
20884;SDS011;10602;48.000;9.654;2022-08-25T06:31:38;15.87;;;11.47;;
20884;SDS011;10602;48.000;9.654;2022-08-25T06:34:07;12.83;;;10.93;;
20884;SDS011;10602;48.000;9.654;2022-08-25T06:36:34;17.00;;;13.50;;
20884;SDS011;10602;48.000;9.654;2022-08-25T06:39:02;21.33;;;18.27;;
20884;SDS011;10602;48.000;9.654;2022-08-25T06:41:30;47.13;;;37.53;;
20884;SDS011;10602;48.000;9.654;2022-08-25T06:43:57;35.43;;;27.07;;
20884;SDS011;10602;48.000;9.654;2022-08-25T06:46:26;21.27;;;16.20;;
20884;SDS011;10602;48.000;9.654;2022-08-25T06:48:55;15.03;;;11.97;;
20884;SDS011;10602;48.000;9.654;2022-08-25T06:51:24;15.63;;;12.27;;
20884;SDS011;10602;48.000;9.654;2022-08-25T06:53:52;11.40;;;10.20;;
20884;SDS011;10602;48.000;9.654;2022-08-25T06:56:20;13.70;;;11.60;;
20884;SDS011;10602;48.000;9.654;2022-08-25T06:58:47;19.97;;;15.13;;
20884;SDS011;10602;48.000;9.654;2022-08-25T07:01:19;11.03;;;9.90;;
20884;SDS011;10602;48.000;9.654;2022-08-25T07:03:50;14.47;;;11.73;;
20884;SDS011;10602;48.000;9.654;2022-08-25T07:06:21;13.80;;;10.27;;
20884;SDS011;10602;48.000;9.654;2022-08-25T07:08:50;13.13;;;10.00;;
20884;SDS011;10602;48.000;9.654;2022-08-25T07:11:18;13.27;;;9.17;;
20884;SDS011;10602;48.000;9.654;2022-08-25T07:13:46;12.03;;;9.20;;
20884;SDS011;10602;48.000;9.654;2022-08-25T07:16:15;10.83;;;8.67;;
20884;SDS011;10602;48.000;9.654;2022-08-25T07:18:44;12.77;;;8.77;;
20884;SDS011;10602;48.000;9.654;2022-08-25T07:21:13;12.87;;;9.73;;
20884;SDS011;10602;48.000;9.654;2022-08-25T07:23:41;11.70;;;9.17;;
20884;SDS011;10602;48.000;9.654;2022-08-25T07:26:13;12.30;;;9.80;;
20884;SDS011;10602;48.000;9.654;2022-08-25T07:28:43;11.43;;;8.80;;
20884;SDS011;10602;48.000;9.654;2022-08-25T07:31:11;15.20;;;8.97;;
20884;SDS011;10602;48.000;9.654;2022-08-25T07:33:38;11.20;;;8.60;;
20884;SDS011;10602;48.000;9.654;2022-08-25T07:36:07;11.10;;;8.40;;
20884;SDS011;10602;48.000;9.654;2022-08-25T07:38:35;11.40;;;8.83;;
20884;SDS011;10602;48.000;9.654;2022-08-25T07:41:02;17.03;;;13.73;;
20884;SDS011;10602;48.000;9.654;2022-08-25T07:43:30;13.40;;;10.17;;
20884;SDS011;10602;48.000;9.654;2022-08-25T07:45:58;14.50;;;11.17;;
20884;SDS011;10602;48.000;9.654;2022-08-25T07:48:25;12.93;;;10.77;;
20884;SDS011;10602;48.000;9.654;2022-08-25T07:50:53;12.80;;;7.93;;
20884;SDS011;10602;48.000;9.654;2022-08-25T07:53:20;10.53;;;8.67;;
20884;SDS011;10602;48.000;9.654;2022-08-25T07:55:48;10.10;;;8.30;;
20884;SDS011;10602;48.000;9.654;2022-08-25T07:58:15;10.47;;;9.37;;
20884;SDS011;10602;48.000;9.654;2022-08-25T08:00:46;18.23;;;15.53;;
20884;SDS011;10602;48.000;9.654;2022-08-25T08:03:13;13.63;;;10.73;;
20884;SDS011;10602;48.000;9.654;2022-08-25T08:05:41;9.47;;;8.40;;
20884;SDS011;10602;48.000;9.654;2022-08-25T08:08:09;7.33;;;6.60;;
20884;SDS011;10602;48.000;9.654;2022-08-25T08:10:40;8.23;;;7.03;;
20884;SDS011;10602;48.000;9.654;2022-08-25T08:13:08;8.63;;;7.17;;
20884;SDS011;10602;48.000;9.654;2022-08-25T08:15:36;12.67;;;10.07;;
20884;SDS011;10602;48.000;9.654;2022-08-25T08:18:05;16.37;;;14.67;;
20884;SDS011;10602;48.000;9.654;2022-08-25T08:20:32;15.30;;;12.83;;
20884;SDS011;10602;48.000;9.654;2022-08-25T08:23:00;10.03;;;9.03;;
20884;SDS011;10602;48.000;9.654;2022-08-25T08:25:28;7.57;;;6.87;;
20884;SDS011;10602;48.000;9.654;2022-08-25T08:27:55;8.17;;;6.10;;
20884;SDS011;10602;48.000;9.654;2022-08-25T08:30:23;9.17;;;7.90;;
20884;SDS011;10602;48.000;9.654;2022-08-25T08:32:51;10.93;;;9.87;;
20884;SDS011;10602;48.000;9.654;2022-08-25T08:35:19;9.03;;;6.67;;
20884;SDS011;10602;48.000;9.654;2022-08-25T08:37:46;9.97;;;8.97;;
20884;SDS011;10602;48.000;9.654;2022-08-25T08:40:14;7.10;;;5.47;;
20884;SDS011;10602;48.000;9.654;2022-08-25T08:45:34;7.77;;;7.07;;
20884;SDS011;10602;48.000;9.654;2022-08-25T08:48:12;12.60;;;8.43;;
20884;SDS011;10602;48.000;9.654;2022-08-25T08:50:47;6.50;;;5.87;;
20884;SDS011;10602;48.000;9.654;2022-08-25T08:53:28;5.70;;;5.07;;
20884;SDS011;10602;48.000;9.654;2022-08-25T08:56:07;6.03;;;5.43;;
20884;SDS011;10602;48.000;9.654;2022-08-25T09:01:27;6.10;;;5.60;;
20884;SDS011;10602;48.000;9.654;2022-08-25T09:03:58;6.60;;;5.90;;
20884;SDS011;10602;48.000;9.654;2022-08-25T09:06:38;7.20;;;5.00;;
20884;SDS011;10602;48.000;9.654;2022-08-25T09:09:08;6.17;;;4.90;;
20884;SDS011;10602;48.000;9.654;2022-08-25T09:11:43;6.67;;;5.00;;
20884;SDS011;10602;48.000;9.654;2022-08-25T09:14:30;5.83;;;5.13;;
20884;SDS011;10602;48.000;9.654;2022-08-25T09:19:30;6.17;;;4.50;;
20884;SDS011;10602;48.000;9.654;2022-08-25T09:28:03;5.10;;;4.60;;
20884;SDS011;10602;48.000;9.654;2022-08-25T16:25:00;2.93;;;2.00;;
20884;SDS011;10602;48.000;9.654;2022-08-25T16:27:28;2.13;;;1.93;;
20884;SDS011;10602;48.000;9.654;2022-08-25T16:29:57;3.27;;;2.10;;
20884;SDS011;10602;48.000;9.654;2022-08-25T16:32:25;2.63;;;1.87;;
20884;SDS011;10602;48.000;9.654;2022-08-25T16:34:53;2.00;;;1.80;;
20884;SDS011;10602;48.000;9.654;2022-08-25T16:37:20;4.17;;;3.77;;
20884;SDS011;10602;48.000;9.654;2022-08-25T16:39:51;2.77;;;1.93;;
20884;SDS011;10602;48.000;9.654;2022-08-25T16:42:19;2.30;;;2.10;;
20884;SDS011;10602;48.000;9.654;2022-08-25T16:44:47;3.30;;;3.00;;
20884;SDS011;10602;48.000;9.654;2022-08-25T16:47:15;3.30;;;3.00;;
20884;SDS011;10602;48.000;9.654;2022-08-25T16:49:43;3.57;;;3.27;;
20884;SDS011;10602;48.000;9.654;2022-08-25T16:52:11;3.67;;;3.23;;
20884;SDS011;10602;48.000;9.654;2022-08-25T16:54:57;2.73;;;2.50;;
20884;SDS011;10602;48.000;9.654;2022-08-25T16:57:49;3.63;;;2.73;;
20884;SDS011;10602;48.000;9.654;2022-08-25T17:00:18;2.90;;;2.70;;
20884;SDS011;10602;48.000;9.654;2022-08-25T17:02:49;3.23;;;2.93;;
20884;SDS011;10602;48.000;9.654;2022-08-25T17:05:19;4.13;;;2.93;;
20884;SDS011;10602;48.000;9.654;2022-08-25T17:07:46;4.20;;;3.00;;
20884;SDS011;10602;48.000;9.654;2022-08-25T17:10:15;3.13;;;2.80;;
20884;SDS011;10602;48.000;9.654;2022-08-25T17:12:43;3.20;;;2.67;;
20884;SDS011;10602;48.000;9.654;2022-08-25T17:15:10;3.67;;;3.10;;
20884;SDS011;10602;48.000;9.654;2022-08-25T17:17:38;3.10;;;2.80;;
20884;SDS011;10602;48.000;9.654;2022-08-25T17:20:05;3.23;;;2.90;;
20884;SDS011;10602;48.000;9.654;2022-08-25T17:22:33;3.30;;;3.00;;
20884;SDS011;10602;48.000;9.654;2022-08-25T17:25:01;3.20;;;2.60;;
20884;SDS011;10602;48.000;9.654;2022-08-25T17:27:28;3.00;;;2.80;;
20884;SDS011;10602;48.000;9.654;2022-08-25T17:29:56;3.37;;;3.07;;
20884;SDS011;10602;48.000;9.654;2022-08-25T17:32:23;3.80;;;2.90;;
20884;SDS011;10602;48.000;9.654;2022-08-25T17:34:51;3.83;;;3.00;;
20884;SDS011;10602;48.000;9.654;2022-08-25T17:37:19;3.47;;;3.17;;
20884;SDS011;10602;48.000;9.654;2022-08-25T17:39:46;3.33;;;3.03;;
20884;SDS011;10602;48.000;9.654;2022-08-25T17:42:13;3.40;;;3.10;;
20884;SDS011;10602;48.000;9.654;2022-08-25T17:44:41;5.23;;;2.97;;
20884;SDS011;10602;48.000;9.654;2022-08-25T17:47:09;3.27;;;2.80;;
20884;SDS011;10602;48.000;9.654;2022-08-25T17:49:36;3.23;;;2.93;;
20884;SDS011;10602;48.000;9.654;2022-08-25T17:52:04;4.27;;;3.30;;
20884;SDS011;10602;48.000;9.654;2022-08-25T17:54:31;2.93;;;2.67;;
20884;SDS011;10602;48.000;9.654;2022-08-25T17:56:59;3.60;;;3.30;;
20884;SDS011;10602;48.000;9.654;2022-08-25T17:59:27;4.80;;;4.40;;
20884;SDS011;10602;48.000;9.654;2022-08-25T18:01:55;4.40;;;3.57;;
20884;SDS011;10602;48.000;9.654;2022-08-25T18:04:23;4.00;;;3.60;;
20884;SDS011;10602;48.000;9.654;2022-08-25T18:06:50;4.90;;;4.10;;
20884;SDS011;10602;48.000;9.654;2022-08-25T18:09:20;7.00;;;4.33;;
20884;SDS011;10602;48.000;9.654;2022-08-25T18:11:47;5.03;;;4.63;;
20884;SDS011;10602;48.000;9.654;2022-08-25T18:14:16;4.07;;;3.60;;
20884;SDS011;10602;48.000;9.654;2022-08-25T18:16:46;4.37;;;3.97;;
20884;SDS011;10602;48.000;9.654;2022-08-25T18:19:13;5.37;;;4.50;;
20884;SDS011;10602;48.000;9.654;2022-08-25T18:21:41;4.10;;;3.70;;
20884;SDS011;10602;48.000;9.654;2022-08-25T18:24:09;4.57;;;3.87;;
20884;SDS011;10602;48.000;9.654;2022-08-25T18:26:37;4.20;;;3.80;;
20884;SDS011;10602;48.000;9.654;2022-08-25T18:29:05;4.40;;;3.50;;
20884;SDS011;10602;48.000;9.654;2022-08-25T18:31:34;4.70;;;3.47;;
20884;SDS011;10602;48.000;9.654;2022-08-25T18:34:01;3.60;;;3.30;;
20884;SDS011;10602;48.000;9.654;2022-08-25T18:36:30;3.60;;;3.30;;
20884;SDS011;10602;48.000;9.654;2022-08-25T18:38:58;4.37;;;3.40;;
20884;SDS011;10602;48.000;9.654;2022-08-25T18:41:43;4.40;;;3.40;;
20884;SDS011;10602;48.000;9.654;2022-08-25T18:44:11;4.50;;;3.40;;
20884;SDS011;10602;48.000;9.654;2022-08-25T18:46:39;4.00;;;3.60;;
20884;SDS011;10602;48.000;9.654;2022-08-25T18:49:07;4.10;;;3.70;;
20884;SDS011;10602;48.000;9.654;2022-08-25T18:51:34;3.97;;;3.67;;
20884;SDS011;10602;48.000;9.654;2022-08-25T18:54:03;5.30;;;3.67;;
20884;SDS011;10602;48.000;9.654;2022-08-25T18:56:32;5.30;;;3.50;;
20884;SDS011;10602;48.000;9.654;2022-08-25T18:58:59;3.80;;;3.47;;
20884;SDS011;10602;48.000;9.654;2022-08-25T19:01:27;4.10;;;3.70;;
20884;SDS011;10602;48.000;9.654;2022-08-25T19:03:55;5.13;;;3.63;;
20884;SDS011;10602;48.000;9.654;2022-08-25T19:06:22;4.43;;;3.40;;
20884;SDS011;10602;48.000;9.654;2022-08-25T19:08:50;4.00;;;3.60;;
20884;SDS011;10602;48.000;9.654;2022-08-25T19:11:18;5.17;;;4.43;;
20884;SDS011;10602;48.000;9.654;2022-08-25T19:13:45;6.70;;;5.20;;
20884;SDS011;10602;48.000;9.654;2022-08-25T19:18:44;11.90;;;10.60;;
20884;SDS011;10602;48.000;9.654;2022-08-25T19:21:11;10.40;;;9.40;;
20884;SDS011;10602;48.000;9.654;2022-08-25T19:23:39;6.80;;;5.80;;
20884;SDS011;10602;48.000;9.654;2022-08-25T19:26:07;5.67;;;5.17;;
20884;SDS011;10602;48.000;9.654;2022-08-25T19:28:35;5.33;;;4.83;;
20884;SDS011;10602;48.000;9.654;2022-08-25T19:31:03;4.80;;;4.30;;
20884;SDS011;10602;48.000;9.654;2022-08-25T19:33:32;5.70;;;4.40;;
20884;SDS011;10602;48.000;9.654;2022-08-25T19:36:00;5.20;;;4.20;;
20884;SDS011;10602;48.000;9.654;2022-08-25T19:38:28;4.20;;;3.80;;
20884;SDS011;10602;48.000;9.654;2022-08-25T19:40:57;4.57;;;3.80;;
20884;SDS011;10602;48.000;9.654;2022-08-25T19:43:25;6.23;;;4.00;;
20884;SDS011;10602;48.000;9.654;2022-08-25T19:45:53;4.67;;;3.93;;
20884;SDS011;10602;48.000;9.654;2022-08-25T19:48:20;5.30;;;4.03;;
20884;SDS011;10602;48.000;9.654;2022-08-25T19:50:48;7.10;;;4.50;;
20884;SDS011;10602;48.000;9.654;2022-08-25T19:53:15;6.83;;;4.53;;
20884;SDS011;10602;48.000;9.654;2022-08-25T19:55:43;9.53;;;4.80;;
20884;SDS011;10602;48.000;9.654;2022-08-25T19:58:11;8.93;;;4.40;;
20884;SDS011;10602;48.000;9.654;2022-08-25T20:00:39;7.93;;;4.77;;
20884;SDS011;10602;48.000;9.654;2022-08-25T20:03:07;11.80;;;4.70;;
20884;SDS011;10602;48.000;9.654;2022-08-25T20:05:35;9.07;;;4.63;;
20884;SDS011;10602;48.000;9.654;2022-08-25T20:08:04;6.03;;;4.33;;
20884;SDS011;10602;48.000;9.654;2022-08-25T20:10:32;5.70;;;4.00;;
20884;SDS011;10602;48.000;9.654;2022-08-25T20:13:00;4.70;;;4.30;;
20884;SDS011;10602;48.000;9.654;2022-08-25T20:15:27;9.67;;;8.33;;
20884;SDS011;10602;48.000;9.654;2022-08-25T20:17:57;9.87;;;8.83;;
20884;SDS011;10602;48.000;9.654;2022-08-25T20:20:26;9.60;;;7.30;;
20884;SDS011;10602;48.000;9.654;2022-08-25T20:22:54;10.37;;;8.33;;
20884;SDS011;10602;48.000;9.654;2022-08-25T20:25:26;13.00;;;11.70;;
20884;SDS011;10602;48.000;9.654;2022-08-25T20:27:55;6.10;;;5.50;;
20884;SDS011;10602;48.000;9.654;2022-08-25T20:30:24;8.03;;;6.27;;
20884;SDS011;10602;48.000;9.654;2022-08-25T20:32:53;12.20;;;10.57;;
20884;SDS011;10602;48.000;9.654;2022-08-25T20:35:23;8.17;;;6.93;;
20884;SDS011;10602;48.000;9.654;2022-08-25T20:37:53;6.57;;;5.33;;
20884;SDS011;10602;48.000;9.654;2022-08-25T20:40:23;4.53;;;4.13;;
20884;SDS011;10602;48.000;9.654;2022-08-25T20:42:52;4.73;;;4.03;;
20884;SDS011;10602;48.000;9.654;2022-08-25T20:45:21;4.90;;;4.47;;
20884;SDS011;10602;48.000;9.654;2022-08-25T20:47:49;4.90;;;4.40;;
20884;SDS011;10602;48.000;9.654;2022-08-25T20:50:18;4.90;;;4.50;;
20884;SDS011;10602;48.000;9.654;2022-08-25T20:52:47;6.30;;;5.03;;
20884;SDS011;10602;48.000;9.654;2022-08-25T20:55:16;5.73;;;5.23;;
20884;SDS011;10602;48.000;9.654;2022-08-25T20:57:43;6.87;;;6.17;;
20884;SDS011;10602;48.000;9.654;2022-08-25T21:00:11;7.80;;;7.00;;
20884;SDS011;10602;48.000;9.654;2022-08-25T21:02:39;6.50;;;5.90;;
20884;SDS011;10602;48.000;9.654;2022-08-25T21:05:07;5.67;;;5.17;;
20884;SDS011;10602;48.000;9.654;2022-08-25T21:07:35;7.30;;;5.80;;
20884;SDS011;10602;48.000;9.654;2022-08-25T21:10:08;8.77;;;5.90;;
20884;SDS011;10602;48.000;9.654;2022-08-25T21:12:37;5.97;;;5.37;;
20884;SDS011;10602;48.000;9.654;2022-08-25T21:15:05;7.70;;;5.80;;
20884;SDS011;10602;48.000;9.654;2022-08-25T21:17:33;7.63;;;5.70;;
20884;SDS011;10602;48.000;9.654;2022-08-25T21:20:01;5.97;;;5.47;;
20884;SDS011;10602;48.000;9.654;2022-08-25T21:22:30;7.90;;;6.17;;
20884;SDS011;10602;48.000;9.654;2022-08-25T21:25:02;7.47;;;5.20;;
20884;SDS011;10602;48.000;9.654;2022-08-25T21:27:30;5.83;;;5.00;;
20884;SDS011;10602;48.000;9.654;2022-08-25T21:29:58;6.47;;;5.47;;
20884;SDS011;10602;48.000;9.654;2022-08-25T21:32:25;6.13;;;5.53;;
20884;SDS011;10602;48.000;9.654;2022-08-25T21:34:53;8.43;;;5.80;;
20884;SDS011;10602;48.000;9.654;2022-08-25T21:37:22;6.47;;;5.90;;
20884;SDS011;10602;48.000;9.654;2022-08-25T21:39:50;5.83;;;5.23;;
20884;SDS011;10602;48.000;9.654;2022-08-25T21:42:18;8.67;;;4.90;;
20884;SDS011;10602;48.000;9.654;2022-08-25T21:44:48;5.50;;;5.03;;
20884;SDS011;10602;48.000;9.654;2022-08-25T21:47:17;7.90;;;5.30;;
20884;SDS011;10602;48.000;9.654;2022-08-25T21:49:45;6.93;;;5.37;;
20884;SDS011;10602;48.000;9.654;2022-08-25T21:52:17;6.87;;;5.10;;
20884;SDS011;10602;48.000;9.654;2022-08-25T21:54:46;7.83;;;4.90;;
20884;SDS011;10602;48.000;9.654;2022-08-25T21:57:17;7.80;;;5.23;;
20884;SDS011;10602;48.000;9.654;2022-08-25T21:59:45;7.20;;;5.43;;
20884;SDS011;10602;48.000;9.654;2022-08-25T22:02:12;5.50;;;4.93;;
20884;SDS011;10602;48.000;9.654;2022-08-25T22:04:40;5.80;;;5.20;;
20884;SDS011;10602;48.000;9.654;2022-08-25T22:07:09;6.37;;;4.80;;
20884;SDS011;10602;48.000;9.654;2022-08-25T22:09:39;6.67;;;5.30;;